Time;durP1;ratioP1;P1;durP2;ratioP2;P2;SDS_P1;SDS_P2;PMS_P1;PMS_P2;Temp;Humidity;BMP_temperature;BMP_pressure;BME280_temperature;BME280_humidity;BME280_pressure;Samples;Min_cycle;Max_cycle;Signal;HPM_P1;HPM_P2
2021/09/03 00:01:39;;;;;;;14.80;8.88;;;;;;;12.05;65.73;100717.50;5067933;28;20103;-71
2021/09/03 00:04:06;;;;;;;13.93;8.27;;;;;;;12.04;65.55;100712.31;5067418;28;20155;-72
2021/09/03 00:06:34;;;;;;;14.80;9.50;;;;;;;12.01;65.84;100705.44;5064985;28;20128;-72
2021/09/03 00:09:05;;;;;;;14.65;7.88;;;;;;;12.01;65.63;100700.16;5069035;28;20415;-74
2021/09/03 00:11:34;;;;;;;14.50;8.95;;;;;;;12.00;65.73;100703.72;5055770;28;20619;-74
2021/09/03 00:14:01;;;;;;;17.55;9.45;;;;;;;11.99;65.74;100702.06;5059888;28;20057;-72
2021/09/03 00:16:28;;;;;;;11.82;7.75;;;;;;;11.98;65.90;100703.00;5053088;28;20249;-72
2021/09/03 00:18:56;;;;;;;13.00;7.63;;;;;;;11.97;66.00;100705.75;5052141;28;20048;-74
2021/09/03 00:21:23;;;;;;;12.85;7.95;;;;;;;11.96;65.91;100701.44;5053346;28;20049;-69
2021/09/03 00:23:50;;;;;;;15.35;8.93;;;;;;;11.94;65.95;100698.88;5052759;28;20049;-71
2021/09/03 00:26:17;;;;;;;17.38;8.48;;;;;;;11.93;65.86;100696.34;5051434;28;20060;-69
2021/09/03 00:28:44;;;;;;;18.52;8.15;;;;;;;11.92;65.90;100690.22;5050080;28;20041;-70
2021/09/03 00:31:11;;;;;;;19.85;7.80;;;;;;;11.89;65.90;100689.56;5048870;28;20444;-70
2021/09/03 00:33:38;;;;;;;16.77;8.65;;;;;;;11.88;66.08;100693.97;5048634;28;20048;-69
2021/09/03 00:36:06;;;;;;;13.75;6.80;;;;;;;11.86;66.00;100682.66;5049275;28;20094;-70
2021/09/03 00:38:33;;;;;;;11.15;8.32;;;;;;;11.84;66.02;100688.06;5048868;28;20503;-69
2021/09/03 00:41:00;;;;;;;11.60;8.18;;;;;;;11.84;66.09;100688.06;5048157;28;20048;-70
2021/09/03 00:43:28;;;;;;;14.25;7.78;;;;;;;11.82;66.06;100678.53;5048997;28;20063;-70
2021/09/03 00:45:55;;;;;;;13.43;7.20;;;;;;;11.80;66.02;100675.16;5049429;28;20044;-70
2021/09/03 00:48:22;;;;;;;16.90;8.98;;;;;;;11.78;66.01;100671.78;5048532;28;20134;-71
2021/09/03 00:50:50;;;;;;;12.38;7.22;;;;;;;11.76;65.98;100663.13;5049309;28;20091;-71
2021/09/03 00:53:18;;;;;;;10.13;6.75;;;;;;;11.75;66.14;100666.72;5049208;28;20049;-70
2021/09/03 00:55:46;;;;;;;12.68;8.05;;;;;;;11.74;66.06;100665.88;5048006;28;20049;-72
2021/09/03 00:58:13;;;;;;;16.02;8.02;;;;;;;11.75;66.25;100661.41;5054347;28;20069;-70
2021/09/03 01:00:40;;;;;;;12.02;7.10;;;;;;;11.74;65.97;100667.66;5063955;28;20048;-71
2021/09/03 01:03:07;;;;;;;9.35;6.10;;;;;;;11.73;66.09;100661.53;5054123;28;20056;-70
2021/09/03 01:05:33;;;;;;;13.70;7.10;;;;;;;11.66;65.82;100661.09;5048981;28;20049;-69
2021/09/03 01:08:00;;;;;;;14.63;6.85;;;;;;;11.60;66.10;100658.91;5048161;28;20055;-70
2021/09/03 01:10:29;;;;;;;13.65;8.02;;;;;;;11.60;66.09;100661.53;5048049;28;20048;-72
2021/09/03 01:12:55;;;;;;;13.18;7.18;;;;;;;11.60;66.14;100656.25;5052732;28;20413;-72
2021/09/03 01:15:22;;;;;;;10.95;7.22;;;;;;;11.59;66.06;100654.53;5048678;28;20045;-71
2021/09/03 01:17:49;;;;;;;10.60;6.85;;;;;;;11.57;65.76;100650.31;5049080;28;20056;-71
2021/09/03 01:20:16;;;;;;;11.68;5.70;;;;;;;11.53;65.81;100646.22;5048624;28;20377;-70
2021/09/03 01:22:45;;;;;;;13.55;6.70;;;;;;;11.50;65.95;100652.56;5048041;28;20053;-72
2021/09/03 01:25:14;;;;;;;11.32;7.05;;;;;;;11.47;65.85;100647.50;5050010;28;20060;-72
2021/09/03 01:27:41;;;;;;;10.30;5.93;;;;;;;11.44;65.82;100643.25;5049043;28;20051;-71
2021/09/03 01:30:13;;;;;;;10.68;6.03;;;;;;;11.45;66.09;100644.94;5049439;28;20060;-73
2021/09/03 01:32:41;;;;;;;11.15;7.22;;;;;;;11.45;65.82;100638.78;5051184;28;20055;-73
2021/09/03 01:35:09;;;;;;;11.40;6.72;;;;;;;11.43;65.89;100635.41;5049445;28;20073;-70
2021/09/03 01:37:36;;;;;;;12.13;7.75;;;;;;;11.40;66.07;100635.66;5049197;28;20049;-70
2021/09/03 01:40:06;;;;;;;12.75;7.72;;;;;;;11.40;66.06;100633.00;5049293;28;20045;-71
2021/09/03 01:42:33;;;;;;;12.05;6.43;;;;;;;11.42;65.85;100626.66;5013719;28;20044;-71
2021/09/03 01:44:59;;;;;;;11.18;7.25;;;;;;;11.42;65.75;100629.28;5058044;28;20047;-70
2021/09/03 01:47:26;;;;;;;12.07;7.05;;;;;;;11.40;65.89;100625.91;5062416;28;20057;-71
2021/09/03 01:49:53;;;;;;;13.27;6.55;;;;;;;11.38;65.91;100629.59;5059281;28;20045;-71
2021/09/03 01:52:20;;;;;;;10.18;6.30;;;;;;;11.38;65.74;100626.94;5058744;28;20049;-71
2021/09/03 01:54:47;;;;;;;10.15;6.68;;;;;;;11.35;65.99;100632.47;5060062;28;20067;-73
2021/09/03 01:57:15;;;;;;;11.68;7.00;;;;;;;11.36;65.76;100623.56;5059767;28;20056;-70
2021/09/03 01:59:42;;;;;;;11.85;6.88;;;;;;;11.34;65.85;100625.47;5059089;28;20049;-69
2021/09/03 02:02:09;;;;;;;10.65;6.47;;;;;;;11.33;65.94;100629.09;5050241;28;20053;-70
2021/09/03 02:04:36;;;;;;;10.75;6.70;;;;;;;11.32;65.88;100622.94;5050731;28;20041;-69
2021/09/03 02:07:03;;;;;;;12.00;6.78;;;;;;;11.29;66.00;100631.13;5051007;28;20048;-70
2021/09/03 02:09:30;;;;;;;11.60;6.65;;;;;;;11.29;66.10;100626.66;5051585;28;20373;-70
2021/09/03 02:11:57;;;;;;;11.98;6.45;;;;;;;11.31;65.92;100626.56;5050444;28;20049;-69
2021/09/03 02:14:25;;;;;;;13.60;7.97;;;;;;;11.31;66.11;100617.75;5049918;28;20631;-69
2021/09/03 02:16:52;;;;;;;14.68;6.82;;;;;;;11.29;65.91;100610.78;5050488;28;20114;-72
2021/09/03 02:19:19;;;;;;;12.68;7.88;;;;;;;11.27;66.08;100609.19;5054979;28;20159;-71
2021/09/03 02:21:45;;;;;;;10.98;6.43;;;;;;;11.26;66.20;100608.34;5058349;28;20063;-71
2021/09/03 02:24:12;;;;;;;12.23;7.30;;;;;;;11.24;66.09;100607.63;5049616;28;20345;-72
2021/09/03 02:26:39;;;;;;;11.85;7.18;;;;;;;11.23;66.14;100602.44;5049819;28;20045;-71
2021/09/03 02:29:06;;;;;;;14.27;7.13;;;;;;;11.24;66.11;100604.97;5050015;28;20448;-71
2021/09/03 02:31:35;;;;;;;13.05;7.97;;;;;;;11.23;66.08;100597.16;5050010;28;20504;-71
2021/09/03 02:34:01;;;;;;;12.18;7.15;;;;;;;11.22;66.01;100601.59;5050638;28;20052;-71
2021/09/03 02:36:28;;;;;;;10.60;5.68;;;;;;;11.21;66.10;100602.53;5051130;28;20048;-71
2021/09/03 02:38:55;;;;;;;12.52;7.68;;;;;;;11.18;66.13;100589.56;5037268;28;20405;-71
2021/09/03 02:41:22;;;;;;;12.20;7.45;;;;;;;11.15;65.94;100592.41;5028847;28;20049;-72
2021/09/03 02:43:49;;;;;;;13.48;7.95;;;;;;;11.16;65.96;100588.78;5028411;28;20050;-71
2021/09/03 02:46:16;;;;;;;16.50;8.13;;;;;;;11.16;66.08;100588.78;5028782;28;20060;-71
2021/09/03 02:48:48;;;;;;;12.23;8.40;;;;;;;11.16;66.11;100582.66;5028565;28;20046;-72
2021/09/03 02:51:14;;;;;;;12.55;6.70;;;;;;;11.13;65.85;100572.28;5028727;28;20056;-72
2021/09/03 02:53:42;;;;;;;12.30;7.50;;;;;;;11.10;65.95;100571.56;5028175;28;20046;-73
2021/09/03 02:56:09;;;;;;;11.50;7.43;;;;;;;11.07;65.94;100570.94;5028614;28;20072;-72
2021/09/03 02:58:36;;;;;;;12.18;7.95;;;;;;;11.03;65.68;100569.47;5028672;28;20071;-71
2021/09/03 03:01:02;;;;;;;10.32;6.47;;;;;;;10.99;65.98;100562.69;5028412;28;20457;-74
2021/09/03 03:03:29;;;;;;;12.55;6.68;;;;;;;10.97;65.76;100573.38;5029409;28;20068;-74
2021/09/03 03:05:57;;;;;;;14.63;6.90;;;;;;;10.97;65.87;100561.97;5028546;28;20604;-72
2021/09/03 03:08:24;;;;;;;11.18;7.10;;;;;;;10.97;65.66;100556.69;5027477;28;20057;-72
2021/09/03 03:10:51;;;;;;;11.50;6.40;;;;;;;10.95;65.75;100554.13;5029785;28;20046;-72
2021/09/03 03:13:23;;;;;;;13.38;7.57;;;;;;;10.92;65.79;100548.22;5030447;28;20427;-70
2021/09/03 03:15:51;;;;;;;12.80;7.22;;;;;;;10.93;65.71;100555.19;5031519;28;20046;-72
2021/09/03 03:18:18;;;;;;;12.35;6.05;;;;;;;10.91;65.86;100550.00;5029382;28;20069;-73
2021/09/03 03:20:46;;;;;;;13.10;7.53;;;;;;;10.89;65.83;100538.69;5029935;28;20053;-73
2021/09/03 03:23:14;;;;;;;9.77;7.57;;;;;;;10.88;65.74;100542.31;5031352;28;20046;-74
2021/09/03 03:25:42;;;;;;;8.98;5.65;;;;;;;10.83;65.44;100544.41;5029752;28;20485;-72
2021/09/03 03:28:09;;;;;;;14.15;7.30;;;;;;;10.80;65.50;100545.44;5030761;28;20049;-72
2021/09/03 03:30:37;;;;;;;11.98;7.30;;;;;;;10.78;65.54;100550.00;5030289;28;20045;-71
2021/09/03 03:33:04;;;;;;;12.82;7.35;;;;;;;10.77;65.56;100543.03;5040843;28;20050;-74
2021/09/03 03:35:31;;;;;;;14.88;6.78;;;;;;;10.73;65.70;100541.53;5029793;28;20504;-72
2021/09/03 03:37:59;;;;;;;13.80;9.05;;;;;;;10.73;65.68;100544.19;5028429;28;20057;-74
2021/09/03 03:40:27;;;;;;;14.65;7.68;;;;;;;10.74;65.71;100539.75;5028638;28;20041;-74
2021/09/03 03:42:54;;;;;;;11.07;7.63;;;;;;;10.74;65.70;100527.38;5027889;28;20493;-72
2021/09/03 03:45:21;;;;;;;10.23;6.85;;;;;;;10.76;65.76;100528.13;5029190;28;20063;-72
2021/09/03 03:47:48;;;;;;;14.65;7.60;;;;;;;10.77;65.87;100527.19;5027519;28;20061;-70
2021/09/03 03:50:15;;;;;;;13.05;7.90;;;;;;;10.79;65.87;100525.28;5028169;28;20058;-70
2021/09/03 03:52:42;;;;;;;13.35;7.68;;;;;;;10.81;65.77;100526.00;5029467;28;20482;-72
2021/09/03 03:55:11;;;;;;;14.55;9.02;;;;;;;10.86;66.01;100520.44;4994519;28;20064;-72
2021/09/03 03:57:39;;;;;;;14.07;8.10;;;;;;;10.87;66.15;100512.38;5028961;28;20060;-71
2021/09/03 04:00:07;;;;;;;12.55;7.80;;;;;;;10.90;65.99;100517.44;5029621;28;20052;-72
2021/09/03 04:02:34;;;;;;;12.98;7.80;;;;;;;10.94;66.01;100518.06;5029286;28;20060;-71
2021/09/03 04:05:01;;;;;;;12.77;6.25;;;;;;;10.99;66.02;100510.69;5029763;28;20049;-72
2021/09/03 04:07:28;;;;;;;16.88;8.30;;;;;;;11.01;66.01;100510.56;5033105;28;20058;-70
2021/09/03 04:09:55;;;;;;;14.90;7.55;;;;;;;11.04;66.10;100507.72;5031756;28;20050;-71
2021/09/03 04:12:22;;;;;;;11.85;7.47;;;;;;;11.08;65.94;100504.75;5032648;28;20061;-72
2021/09/03 04:14:50;;;;;;;11.65;6.95;;;;;;;11.20;66.01;100500.41;5031308;28;20160;-71
2021/09/03 04:17:17;;;;;;;13.93;6.60;;;;;;;11.54;65.70;100503.25;5031148;28;20048;-70
2021/09/03 04:19:44;;;;;;;15.10;7.93;;;;;;;11.93;65.05;100501.31;5032266;28;20050;-72
2021/09/03 04:22:11;;;;;;;8.63;5.88;;;;;;;12.34;64.35;100494.72;5033023;28;20050;-70
2021/09/03 04:24:37;;;;;;;11.02;6.32;;;;;;;12.74;63.58;100490.81;5030545;28;20582;-71
2021/09/03 04:27:05;;;;;;;11.93;5.25;;;;;;;13.14;62.94;100499.13;5033570;28;20240;-71
2021/09/03 04:29:31;;;;;;;12.10;6.93;;;;;;;13.52;62.21;100492.59;5032763;28;20045;-70
2021/09/03 04:32:00;;;;;;;12.60;6.95;;;;;;;13.87;61.34;100496.81;5031694;28;20049;-69
2021/09/03 04:34:27;;;;;;;13.07;5.88;;;;;;;14.22;60.60;100487.69;5032041;28;20057;-69
2021/09/03 04:36:54;;;;;;;15.40;7.15;;;;;;;14.52;59.81;100481.59;5032357;28;20482;-71
2021/09/03 04:39:20;;;;;;;17.02;7.82;;;;;;;14.81;59.20;100485.44;5032985;28;20049;-73
2021/09/03 04:41:48;;;;;;;28.88;8.95;;;;;;;15.10;58.73;100472.25;5031800;28;20461;-74
2021/09/03 04:44:14;;;;;;;23.60;9.40;;;;;;;15.43;57.91;100471.06;5031118;28;20052;-73
2021/09/03 04:46:41;;;;;;;23.83;7.22;;;;;;;15.74;57.08;100479.00;5033448;28;20507;-73
2021/09/03 04:49:10;;;;;;;16.10;6.93;;;;;;;16.08;56.52;100470.59;5031458;28;20057;-71
2021/09/03 04:51:36;;;;;;;10.45;6.13;;;;;;;16.40;55.64;100469.38;5032782;28;20049;-72
2021/09/03 04:54:03;;;;;;;10.32;6.65;;;;;;;16.73;55.00;100465.38;5032002;28;20454;-70
2021/09/03 04:56:30;;;;;;;11.18;5.97;;;;;;;17.07;54.30;100472.84;5035303;28;20057;-68
2021/09/03 04:58:58;;;;;;;11.50;5.72;;;;;;;17.36;53.59;100471.84;5033971;28;20075;-68
2021/09/03 05:01:24;;;;;;;17.88;6.28;;;;;;;17.62;52.96;100460.44;5030038;28;20054;-69
2021/09/03 05:03:53;;;;;;;10.52;5.55;;;;;;;17.85;52.03;100455.47;5031001;28;20049;-71
2021/09/03 05:06:21;;;;;;;10.38;5.55;;;;;;;18.12;51.88;100467.91;5029815;28;20131;-74
2021/09/03 05:08:48;;;;;;;15.27;5.85;;;;;;;18.36;51.08;100463.75;5030872;28;20045;-73
2021/09/03 05:11:15;;;;;;;12.80;6.40;;;;;;;18.50;50.56;100465.84;5030425;28;20481;-73
2021/09/03 05:13:42;;;;;;;14.32;5.70;;;;;;;18.68;50.41;100455.09;5031302;28;20046;-75
2021/09/03 05:16:09;;;;;;;9.38;6.63;;;;;;;18.82;50.03;100459.88;5029714;28;20048;-73
2021/09/03 05:18:36;;;;;;;9.25;5.30;;;;;;;18.86;49.50;100447.84;5030176;28;20066;-71
2021/09/03 05:21:03;;;;;;;8.70;5.03;;;;;;;18.78;49.50;100447.78;5029714;28;20049;-75
2021/09/03 05:23:32;;;;;;;11.30;5.75;;;;;;;18.36;50.35;100453.03;5028524;28;20056;-76
2021/09/03 05:25:58;;;;;;;11.43;5.28;;;;;;;17.79;51.10;100459.59;5030229;28;20048;-72
2021/09/03 05:28:27;;;;;;;10.77;6.47;;;;;;;17.34;51.97;100458.66;5030892;28;20053;-72
2021/09/03 05:30:54;;;;;;;11.43;5.97;;;;;;;16.95;52.85;100461.53;5029432;28;20619;-71
2021/09/03 05:33:21;;;;;;;10.48;5.35;;;;;;;16.62;53.75;100453.06;5028316;28;20061;-74
2021/09/03 05:35:48;;;;;;;8.55;5.68;;;;;;;16.38;54.32;100452.69;5028830;28;20358;-71
2021/09/03 05:38:15;;;;;;;9.13;5.00;;;;;;;16.19;54.73;100459.75;5027744;28;20057;-72
2021/09/03 05:40:44;;;;;;;7.05;4.97;;;;;;;16.00;55.09;100441.97;5028208;28;20056;-72
2021/09/03 05:43:10;;;;;;;12.15;4.82;;;;;;;15.90;55.52;100451.81;5027440;28;20059;-72
2021/09/03 05:45:37;;;;;;;8.63;4.30;;;;;;;15.78;55.88;100442.28;5026879;28;20045;-73
2021/09/03 05:48:04;;;;;;;11.15;4.85;;;;;;;15.71;56.16;100443.78;5027733;28;20507;-73
2021/09/03 05:50:31;;;;;;;10.32;5.35;;;;;;;15.68;56.23;100443.09;5026910;28;20523;-71
2021/09/03 05:52:58;;;;;;;10.93;4.68;;;;;;;15.69;56.39;100441.25;5028587;28;20057;-73
2021/09/03 05:55:27;;;;;;;7.82;4.80;;;;;;;15.70;56.43;100444.75;5027602;28;20060;-71
2021/09/03 05:57:57;;;;;;;7.75;4.45;;;;;;;15.74;56.58;100436.38;4993924;28;20053;-72
2021/09/03 06:00:24;;;;;;;6.25;3.42;;;;;;;15.77;56.40;100436.13;5028561;28;20132;-71
2021/09/03 06:02:51;;;;;;;8.05;4.53;;;;;;;15.80;56.54;100438.47;5026418;28;20181;-71
2021/09/03 06:05:18;;;;;;;7.97;4.10;;;;;;;15.83;56.41;100429.38;5027324;28;20045;-75
2021/09/03 06:07:45;;;;;;;9.10;4.30;;;;;;;15.91;56.46;100426.81;5026407;28;20064;-70
2021/09/03 06:10:13;;;;;;;8.93;3.90;;;;;;;15.97;56.52;100420.09;5027464;28;20049;-73
2021/09/03 06:12:40;;;;;;;7.63;4.22;;;;;;;16.05;56.61;100422.91;5025550;28;20053;-75
2021/09/03 06:15:10;;;;;;;5.82;3.75;;;;;;;16.12;56.53;100421.34;5028161;28;20045;-76
2021/09/03 06:17:37;;;;;;;8.82;4.00;;;;;;;16.19;56.47;100425.13;5026924;28;20059;-73
2021/09/03 06:20:05;;;;;;;7.30;4.22;;;;;;;16.29;56.47;100424.25;5026359;28;20046;-71
2021/09/03 06:22:32;;;;;;;8.13;4.30;;;;;;;16.39;56.44;100425.06;5027491;28;20045;-70
2021/09/03 06:24:59;;;;;;;8.55;3.92;;;;;;;16.48;56.13;100418.88;5025984;28;20601;-73
2021/09/03 06:27:25;;;;;;;9.13;4.07;;;;;;;16.61;55.99;100423.88;5026634;28;20457;-73
2021/09/03 06:29:53;;;;;;;7.72;2.97;;;;;;;16.74;55.95;100423.53;5028186;28;20053;-71
2021/09/03 06:32:23;;;;;;;7.00;3.95;;;;;;;16.84;55.91;100421.69;5025476;28;20056;-72
2021/09/03 06:34:51;;;;;;;6.95;3.53;;;;;;;16.96;55.73;100425.00;5027460;28;20099;-74
2021/09/03 06:37:18;;;;;;;6.85;3.47;;;;;;;17.09;55.84;100414.00;5028576;28;20458;-76
2021/09/03 06:39:46;;;;;;;6.25;3.75;;;;;;;17.20;55.51;100419.13;5047297;28;20089;-74
2021/09/03 06:42:14;;;;;;;9.13;3.63;;;;;;;17.32;55.43;100414.38;5045924;28;20045;-72
2021/09/03 06:44:41;;;;;;;8.85;3.33;;;;;;;17.45;55.21;100416.69;5046413;28;20048;-72
2021/09/03 06:47:11;;;;;;;6.95;3.95;;;;;;;17.56;54.99;100411.97;5044571;28;20499;-74
2021/09/03 06:49:40;;;;;;;8.43;3.38;;;;;;;17.68;54.84;100404.56;5048926;28;20546;-70
2021/09/03 06:52:08;;;;;;;8.82;3.60;;;;;;;17.81;54.78;100401.50;5052981;28;20048;-71
2021/09/03 06:54:36;;;;;;;6.20;3.72;;;;;;;17.95;54.05;100408.13;5045698;28;20052;-70
2021/09/03 06:57:04;;;;;;;9.20;2.70;;;;;;;18.05;53.04;100403.53;5048701;28;20049;-71
2021/09/03 06:59:31;;;;;;;3.83;2.72;;;;;;;18.19;52.64;100410.16;5044490;28;20057;-70
2021/09/03 07:01:59;;;;;;;5.82;2.08;;;;;;;18.35;52.03;100409.44;5045051;28;20060;-73
2021/09/03 07:04:26;;;;;;;10.02;1.58;;;;;;;18.48;51.67;100401.81;5044689;28;20049;-72
2021/09/03 07:06:54;;;;;;;3.35;1.60;;;;;;;18.63;51.07;100403.88;5044636;28;20051;-73
2021/09/03 07:09:21;;;;;;;4.43;2.05;;;;;;;18.75;51.16;100402.59;5045093;28;20048;-75
2021/09/03 07:11:48;;;;;;;4.18;1.92;;;;;;;18.91;50.46;100408.06;5046078;28;20060;-71
2021/09/03 07:14:15;;;;;;;3.55;2.03;;;;;;;18.96;48.74;100401.38;5043406;28;20123;-70
2021/09/03 07:16:42;;;;;;;6.57;2.15;;;;;;;18.96;48.48;100404.91;5044334;28;20124;-70
2021/09/03 07:19:09;;;;;;;5.82;1.75;;;;;;;19.15;48.90;100395.75;5043156;28;20076;-72
2021/09/03 07:21:36;;;;;;;4.53;1.80;;;;;;;19.28;48.34;100392.59;5042278;28;20103;-69
2021/09/03 07:24:05;;;;;;;5.85;1.83;;;;;;;19.41;48.71;100390.28;5043944;28;20060;-71
2021/09/03 07:26:32;;;;;;;5.57;1.88;;;;;;;19.43;47.63;100393.63;5044551;28;20056;-69
2021/09/03 07:28:59;;;;;;;4.13;1.55;;;;;;;19.57;47.82;100388.59;5042661;28;20045;-71
2021/09/03 07:31:26;;;;;;;4.40;2.72;;;;;;;19.63;47.03;100387.94;5043868;28;20045;-71
2021/09/03 07:33:53;;;;;;;4.03;1.90;;;;;;;19.67;47.38;100390.13;5043200;28;20132;-70
2021/09/03 07:36:20;;;;;;;2.53;1.35;;;;;;;19.84;47.13;100384.78;5041340;28;20055;-71
2021/09/03 07:38:48;;;;;;;2.17;1.73;;;;;;;19.93;46.60;100378.41;5045869;28;20060;-71
2021/09/03 07:41:16;;;;;;;2.65;1.38;;;;;;;20.14;46.97;100375.19;5046898;28;20064;-71
2021/09/03 07:43:43;;;;;;;2.80;1.40;;;;;;;20.31;46.36;100376.00;5047539;28;20071;-69
2021/09/03 07:46:10;;;;;;;7.40;1.40;;;;;;;20.42;45.91;100372.13;5045843;28;20493;-70
2021/09/03 07:48:37;;;;;;;3.28;2.17;;;;;;;20.43;44.62;100369.25;5046564;28;20071;-70
2021/09/03 07:51:04;;;;;;;2.72;1.60;;;;;;;20.48;44.85;100365.22;5047976;28;20044;-71
2021/09/03 07:53:31;;;;;;;3.63;1.45;;;;;;;20.57;44.87;100365.00;5050152;28;20041;-71
2021/09/03 07:55:57;;;;;;;2.60;1.20;;;;;;;20.73;44.25;100374.88;5057006;28;20045;-70
2021/09/03 07:58:26;;;;;;;6.07;1.98;;;;;;;20.64;42.78;100359.81;5048607;28;20049;-68
2021/09/03 08:00:53;;;;;;;3.45;1.38;;;;;;;20.70;42.42;100360.97;5047524;28;20055;-73
2021/09/03 08:03:20;;;;;;;2.50;1.50;;;;;;;20.79;42.52;100363.44;5044615;28;20079;-71
2021/09/03 08:05:47;;;;;;;3.08;1.48;;;;;;;20.93;42.69;100358.34;5046811;28;20519;-68
2021/09/03 08:08:14;;;;;;;1.42;1.15;;;;;;;21.19;42.74;100353.50;5041678;28;20042;-72
2021/09/03 08:10:41;;;;;;;6.97;1.40;;;;;;;21.29;42.02;100355.09;5025446;28;20057;-70
2021/09/03 08:13:10;;;;;;;9.02;2.10;;;;;;;21.20;41.00;100349.78;5028602;28;20045;-70
2021/09/03 08:15:38;;;;;;;2.60;1.67;;;;;;;21.31;41.88;100340.47;5027802;28;20049;-69
2021/09/03 08:18:05;;;;;;;1.65;1.35;;;;;;;21.43;42.01;100337.34;5027915;28;20064;-71
2021/09/03 08:20:34;;;;;;;2.25;1.13;;;;;;;21.73;41.74;100335.59;5029209;28;20053;-70
2021/09/03 08:23:01;;;;;;;2.70;1.30;;;;;;;22.00;41.39;100341.41;5030479;28;20409;-71
2021/09/03 08:25:28;;;;;;;2.58;1.80;;;;;;;22.16;41.27;100338.53;5038193;28;20041;-71
2021/09/03 08:27:55;;;;;;;2.65;1.42;;;;;;;22.24;40.74;100335.78;5040057;28;20084;-70
2021/09/03 08:30:23;;;;;;;2.17;1.45;;;;;;;22.47;40.66;100330.31;5035010;28;20049;-70
2021/09/03 08:32:51;;;;;;;3.50;1.10;;;;;;;22.61;40.35;100328.63;5033625;28;20049;-71
2021/09/03 08:35:18;;;;;;;2.83;1.85;;;;;;;22.67;39.90;100335.94;5034863;28;20477;-71
2021/09/03 08:37:45;;;;;;;2.55;1.83;;;;;;;22.69;38.17;100327.69;5036232;28;20049;-71
2021/09/03 08:40:13;;;;;;;2.88;1.73;;;;;;;22.36;37.72;100322.69;5036171;28;20144;-70
2021/09/03 08:42:41;;;;;;;8.80;2.08;;;;;;;22.05;38.04;100318.31;5025443;28;20053;-72
2021/09/03 08:45:11;;;;;;;4.75;1.65;;;;;;;21.48;38.22;100316.19;5026485;28;20516;-70
2021/09/03 08:47:39;;;;;;;2.42;1.55;;;;;;;21.28;40.00;100321.19;5027227;28;20124;-71
2021/09/03 08:50:08;;;;;;;3.03;1.55;;;;;;;21.29;39.82;100310.25;5024397;28;20045;-71
2021/09/03 08:52:36;;;;;;;3.65;1.95;;;;;;;21.30;40.32;100306.56;5025339;28;20045;-69
2021/09/03 08:55:03;;;;;;;2.90;1.58;;;;;;;21.38;40.42;100309.16;5026402;28;20049;-69
2021/09/03 08:57:30;;;;;;;3.20;1.83;;;;;;;21.36;39.45;100307.69;5025774;28;20060;-69
2021/09/03 09:00:01;;;;;;;2.03;1.25;;;;;;;21.57;39.56;100299.81;5024716;28;20056;-71
2021/09/03 09:02:30;;;;;;;5.15;2.20;;;;;;;21.50;39.52;100290.81;5023739;28;20046;-70
2021/09/03 09:04:57;;;;;;;4.63;2.20;;;;;;;21.50;39.24;100293.50;5026417;28;20045;-71
2021/09/03 09:07:28;;;;;;;6.60;2.80;;;;;;;21.58;40.49;100287.22;5025783;28;20049;-72
2021/09/03 09:10:06;;;;;;;4.25;2.45;;;;;;;21.69;38.96;100288.63;5026029;28;20049;-71
2021/09/03 09:12:34;;;;;;;3.35;2.17;;;;;;;21.78;38.93;100290.19;5025667;28;20076;-71
2021/09/03 09:15:05;;;;;;;6.57;2.47;;;;;;;21.91;39.21;100289.56;4989129;28;20107;-71
2021/09/03 09:17:33;;;;;;;5.95;2.20;;;;;;;21.91;38.79;100278.81;5024421;28;20635;-70
2021/09/03 09:20:01;;;;;;;3.10;2.00;;;;;;;21.95;38.61;100282.81;5026522;28;20050;-70
2021/09/03 09:22:29;;;;;;;4.07;1.90;;;;;;;22.15;39.28;100278.53;5025096;28;20045;-69
2021/09/03 09:25:20;;;;;;;3.65;2.25;;;;;;;22.01;38.89;100275.84;5025347;28;20136;-71
2021/09/03 09:27:48;;;;;;;4.47;2.80;;;;;;;21.96;39.18;100271.03;5024096;28;20073;-70
2021/09/03 09:30:21;;;;;;;3.50;2.22;;;;;;;21.90;39.23;100269.91;5026005;28;20068;-71
2021/09/03 09:33:15;;;;;;;3.15;1.90;;;;;;;22.09;39.67;100264.97;5026496;28;20493;-70
2021/09/03 09:35:45;;;;;;;3.42;2.10;;;;;;;22.15;39.39;100256.19;5024548;28;20056;-71
2021/09/03 09:38:14;;;;;;;4.55;2.88;;;;;;;22.14;39.74;100262.56;5024637;28;20069;-70
2021/09/03 09:40:50;;;;;;;4.72;2.45;;;;;;;22.26;39.68;100257.56;5023317;28;20520;-71
2021/09/03 09:43:28;;;;;;;4.45;2.60;;;;;;;22.35;40.22;100261.03;5024301;28;20045;-72
2021/09/03 09:46:18;;;;;;;5.15;2.78;;;;;;;22.41;40.27;100263.78;5025510;28;20041;-71
2021/09/03 09:49:12;;;;;;;5.45;2.42;;;;;;;22.61;40.08;100250.53;5023098;28;20056;-71
2021/09/03 09:51:42;;;;;;;5.88;3.55;;;;;;;22.58;40.26;100237.50;5026154;28;20064;-70
2021/09/03 09:54:14;;;;;;;3.97;3.03;;;;;;;22.45;40.44;100240.84;5024820;28;20049;-70
2021/09/03 09:56:42;;;;;;;4.68;3.03;;;;;;;22.36;40.13;100246.53;5025417;28;20485;-70
2021/09/03 09:59:11;;;;;;;7.55;3.47;;;;;;;22.36;41.01;100235.78;5023881;28;20531;-71
2021/09/03 10:01:40;;;;;;;7.63;4.03;;;;;;;22.47;40.66;100227.19;5023274;28;20512;-71
2021/09/03 10:04:09;;;;;;;6.13;3.40;;;;;;;22.40;41.23;100237.06;5025567;28;20046;-73
2021/09/03 10:06:38;;;;;;;8.57;3.78;;;;;;;22.68;41.29;100232.59;5025123;28;20049;-72
2021/09/03 10:09:08;;;;;;;7.50;3.28;;;;;;;22.67;40.60;100211.25;5024431;28;20045;-72
2021/09/03 10:11:39;;;;;;;4.88;3.42;;;;;;;22.60;41.18;100215.75;5027882;28;20648;-72
2021/09/03 10:14:07;;;;;;;7.13;3.88;;;;;;;22.55;40.78;100219.00;5025157;28;20049;-72
2021/09/03 10:16:35;;;;;;;4.72;3.28;;;;;;;22.66;41.33;100221.19;5024157;28;20056;-71
2021/09/03 10:19:06;;;;;;;6.68;3.28;;;;;;;23.03;40.94;100226.50;5026110;28;20049;-72
2021/09/03 10:21:36;;;;;;;6.22;3.60;;;;;;;23.17;40.17;100217.56;5024199;28;20053;-72
2021/09/03 10:24:10;;;;;;;6.72;3.63;;;;;;;23.09;40.45;100210.44;5024776;28;20057;-73
2021/09/03 10:26:40;;;;;;;7.57;3.78;;;;;;;23.19;40.46;100210.13;5024914;28;20055;-73
2021/09/03 10:29:20;;;;;;;4.63;2.95;;;;;;;23.44;40.91;100206.97;5023747;28;20054;-72
2021/09/03 10:32:43;;;;;;;8.70;3.35;;;;;;;23.55;39.95;100203.75;5025382;28;20053;-72
2021/09/03 10:35:18;;;;;;;5.68;3.70;;;;;;;23.60;40.18;100192.38;5003693;28;20164;-72
2021/09/03 10:37:45;;;;;;;5.97;4.57;;;;;;;23.39;39.41;100177.09;5005823;28;20085;-72
2021/09/03 10:40:36;;;;;;;9.85;4.00;;;;;;;23.22;40.58;100184.66;5003226;28;20511;-72
2021/09/03 10:43:05;;;;;;;5.57;3.80;;;;;;;23.10;40.71;100184.34;5003484;28;20591;-71
2021/09/03 10:45:40;;;;;;;4.47;3.50;;;;;;;23.00;41.35;100187.34;5007629;28;20046;-72
2021/09/03 10:48:11;;;;;;;6.47;3.60;;;;;;;23.48;40.46;100184.03;5005825;28;20056;-71
2021/09/03 10:50:44;;;;;;;6.18;2.60;;;;;;;23.63;39.96;100178.50;5004911;28;20050;-72
2021/09/03 10:53:18;;;;;;;7.57;4.97;;;;;;;23.72;39.70;100171.09;5013990;28;20065;-71
2021/09/03 10:56:07;;;;;;;7.75;4.20;;;;;;;23.70;39.88;100168.59;5028347;28;20050;-71
2021/09/03 10:58:52;;;;;;;6.05;3.08;;;;;;;24.05;40.05;100171.25;5025685;28;20100;-71
2021/09/03 11:01:50;;;;;;;5.75;3.05;;;;;;;24.51;39.79;100164.34;5022960;28;20480;-73
2021/09/03 11:04:18;;;;;;;5.10;3.50;;;;;;;24.48;39.66;100172.84;5026775;28;20049;-71
2021/09/03 11:07:11;;;;;;;5.07;3.10;;;;;;;24.37;39.87;100155.38;5024598;28;20041;-70
2021/09/03 11:09:42;;;;;;;3.97;2.53;;;;;;;24.30;40.12;100162.63;4963044;28;20677;-71
2021/09/03 11:12:15;;;;;;;5.60;2.83;;;;;;;24.23;39.03;100152.63;4964823;28;20055;-70
2021/09/03 11:14:44;;;;;;;5.90;3.20;;;;;;;24.19;38.93;100151.38;4961706;28;20118;-69
2021/09/03 11:17:13;;;;;;;7.72;3.45;;;;;;;24.29;39.31;100151.00;4961917;28;20060;-71
2021/09/03 11:19:44;;;;;;;4.50;2.90;;;;;;;24.24;37.19;100138.13;4962659;28;20047;-69
2021/09/03 11:22:14;;;;;;;4.68;3.30;;;;;;;24.13;36.55;100137.84;4962922;28;20047;-70
2021/09/03 11:24:42;;;;;;;3.88;2.65;;;;;;;24.13;36.63;100140.56;4962310;28;20510;-69
2021/09/03 11:27:11;;;;;;;6.43;3.28;;;;;;;24.01;36.89;100129.53;4962985;28;20065;-71
2021/09/03 11:29:46;;;;;;;7.75;3.72;;;;;;;24.02;37.05;100133.88;4962634;28;20058;-69